Search for airport 
image banner adimage banner adimage banner ad
image banner ad

08N - Keller Brothers

Located in Lebanon, United States

ICAO - 08N, IATA -

Data provided by Airmate  

General information

Coordinates: N40°17'30" W76°19'43"
Elevation is 550 feet MSL.
Magnetic variation is -12° East
View others Airports in Pennsylvania

Operational data

Special qualification required
Current time UTC:
Current local time:
Weather at : KLNS - Lancaster ( 19 km )
METAR: KLNS 182353Z 25005KT 10SM CLR 24/05 A3025 RMK AO2 SLP243 T02390050 10272 20239 56008
TAF: KLNS 182341Z 1900/1924 VRB04KT P6SM SKC FM192000 VRB04KT P6SM SCT250
View NOTAMs / SUP AIP / TFR affecting this airport [VIEW]
Communications frequencies: [VIEW]

Runways:

RWY identifierQFULength (ft)Width (ft)SurfaceLDA (ft)
0756°2692120GRASS
25236°2692120GRASS

Airport contact information

Address: Lebanon United States

Satellite view of 08N